Time;durP1;ratioP1;P1;durP2;ratioP2;P2;SDS_P1;SDS_P2;PMS_P1;PMS_P2;Temp;Humidity;BMP_temperature;BMP_pressure;BME280_temperature;BME280_humidity;BME280_pressure;Samples;Min_cycle;Max_cycle;Signal;HPM_P1;HPM_P2
2022/05/28 00:00:19;;;;;;;2.40;2.30;;;16.40;49.50;;;;;;20804;6779;117012;-86
2022/05/28 00:02:55;;;;;;;3.00;2.80;;;16.70;50.10;;;;;;20499;6764;279376;-84
2022/05/28 00:05:31;;;;;;;2.37;2.27;;;16.70;50.10;;;;;;20838;6779;122171;-84
2022/05/28 00:08:08;;;;;;;2.83;2.62;;;17.00;49.60;;;;;;20610;6764;306123;-84
2022/05/28 00:10:44;;;;;;;3.00;2.70;;;16.90;49.50;;;;;;20630;6757;308302;-82
2022/05/28 00:13:19;;;;;;;3.20;3.00;;;17.30;48.90;;;;;;20619;6767;307478;-83
2022/05/28 00:15:55;;;;;;;2.80;2.70;;;17.60;48.40;;;;;;20853;6778;117871;-82
2022/05/28 00:18:31;;;;;;;2.67;2.47;;;17.40;48.30;;;;;;20838;6760;118555;-83
2022/05/28 00:21:09;;;;;;;2.90;2.63;;;17.10;48.70;;;;;;20763;6768;117433;-82
2022/05/28 00:23:45;;;;;;;2.97;2.77;;;16.90;49.10;;;;;;20813;6767;120146;-82
2022/05/28 00:26:20;;;;;;;2.80;2.70;;;16.80;49.40;;;;;;20806;6767;123380;-82
2022/05/28 00:28:56;;;;;;;3.17;2.92;;;16.70;49.50;;;;;;20651;6760;337349;-82
2022/05/28 00:31:33;;;;;;;3.50;3.20;;;16.90;49.00;;;;;;20526;6775;307717;-82
2022/05/28 00:34:11;;;;;;;4.20;3.20;;;17.40;47.90;;;;;;20587;6772;310729;-84
2022/05/28 00:36:44;;;;;;;4.47;3.47;;;17.90;47.00;;;;;;20687;6745;280426;-86
2022/05/28 00:39:20;;;;;;;4.32;3.90;;;17.90;47.00;;;;;;20699;6734;338076;-85
2022/05/28 00:41:57;;;;;;;3.63;3.33;;;18.00;46.70;;;;;;20427;6807;281802;-83
2022/05/28 00:44:32;;;;;;;4.40;3.77;;;18.00;47.10;;;;;;20845;6774;121091;-84
2022/05/28 00:47:09;;;;;;;6.73;3.67;;;17.70;47.50;;;;;;20870;6774;117337;-84
2022/05/28 00:49:45;;;;;;;4.90;3.70;;;17.30;48.10;;;;;;20748;6745;309205;-84
2022/05/28 00:52:20;;;;;;;6.47;3.20;;;17.30;48.60;;;;;;20681;6781;116814;-83
2022/05/28 00:54:57;;;;;;;4.85;4.00;;;17.10;48.40;;;;;;20686;6766;278061;-83
2022/05/28 00:57:36;;;;;;;7.37;3.53;;;17.20;49.00;;;;;;20968;6736;116968;-85
2022/05/28 01:00:08;;;;;;;5.72;4.20;;;17.00;48.80;;;;;;20734;6736;305211;-85
2022/05/28 01:02:44;;;;;;;4.30;3.83;;;17.00;49.90;;;;;;20777;6736;120190;-85
2022/05/28 01:05:20;;;;;;;4.37;3.97;;;16.80;49.70;;;;;;20977;6736;117794;-84
2022/05/28 01:08:37;;;;;;;5.35;4.20;;;16.50;50.00;;;;;;20766;6736;334920;-84
2022/05/28 01:11:36;;;;;;;4.60;4.20;;;16.60;51.30;;;;;;20637;6736;309527;-82
2022/05/28 01:14:32;;;;;;;7.20;4.33;;;16.90;50.60;;;;;;20892;6736;118215;-83
2022/05/28 01:17:13;;;;;;;5.63;4.37;;;16.60;50.40;;;;;;20713;6736;306388;-82
2022/05/28 01:20:00;;;;;;;5.07;4.23;;;16.50;51.00;;;;;;20771;6806;116114;-82
2022/05/28 01:22:44;;;;;;;4.93;4.27;;;16.60;50.60;;;;;;20511;6736;278343;-82
2022/05/28 01:25:26;;;;;;;6.27;4.40;;;16.50;51.10;;;;;;20719;6736;305881;-82
2022/05/28 01:28:01;;;;;;;5.03;4.07;;;16.80;50.80;;;;;;20933;6736;117382;-84
2022/05/28 01:30:40;;;;;;;5.60;4.32;;;16.70;50.80;;;;;;20694;6736;278128;-82
2022/05/28 01:33:16;;;;;;;5.03;4.40;;;16.70;50.70;;;;;;20709;6736;305529;-84
2022/05/28 01:35:52;;;;;;;5.80;4.13;;;17.00;50.90;;;;;;20703;6736;292891;-83
2022/05/28 01:38:27;;;;;;;4.82;4.07;;;17.20;49.80;;;;;;20697;6736;307567;-82
2022/05/28 01:41:03;;;;;;;4.30;3.90;;;17.30;49.30;;;;;;20865;6736;116955;-83
2022/05/28 01:43:38;;;;;;;5.80;3.70;;;17.10;49.60;;;;;;20922;6736;118159;-83
2022/05/28 01:46:14;;;;;;;6.30;3.70;;;16.70;50.20;;;;;;20903;6736;116872;-84
2022/05/28 01:48:49;;;;;;;5.70;4.12;;;16.50;50.60;;;;;;20706;6736;305158;-82
2022/05/28 01:51:25;;;;;;;6.70;4.13;;;16.60;49.00;;;;;;20825;6736;114279;-82
2022/05/28 01:54:07;;;;;;;5.03;3.40;;;16.60;49.20;;;;;;20908;6735;113251;-84
2022/05/28 01:56:43;;;;;;;5.72;3.97;;;16.40;49.70;;;;;;20709;6736;304214;-84
2022/05/28 01:59:24;;;;;;;4.20;3.33;;;16.60;50.20;;;;;;20917;6736;116999;-83
2022/05/28 02:01:59;;;;;;;6.87;4.10;;;16.60;50.40;;;;;;20781;6736;117302;-83
2022/05/28 02:04:35;;;;;;;5.28;4.20;;;16.40;50.90;;;;;;20693;6736;276986;-83
2022/05/28 02:07:11;;;;;;;6.30;4.03;;;16.60;51.80;;;;;;20921;6736;118182;-83
2022/05/28 02:09:46;;;;;;;4.67;4.23;;;16.50;51.50;;;;;;20926;6736;115936;-83
2022/05/28 02:12:22;;;;;;;4.50;3.90;;;16.30;51.70;;;;;;20734;6736;119147;-83
2022/05/28 02:15:03;;;;;;;5.45;4.60;;;16.10;52.10;;;;;;20702;6736;319596;-84
2022/05/28 02:18:06;;;;;;;4.50;4.10;;;16.30;52.40;;;;;;20721;6736;276712;-82
2022/05/28 02:21:01;;;;;;;7.83;3.87;;;16.70;51.50;;;;;;20891;6792;116168;-83
2022/05/28 02:23:44;;;;;;;5.40;3.70;;;16.30;51.00;;;;;;20923;6736;116892;-82
2022/05/28 02:26:26;;;;;;;6.53;3.30;;;16.20;50.90;;;;;;20904;6736;126791;-84
2022/05/28 02:29:02;;;;;;;6.40;4.03;;;16.00;51.00;;;;;;20703;6736;336330;-83
2022/05/28 02:31:37;;;;;;;4.93;3.53;;;16.30;49.70;;;;;;20824;6736;120517;-83
2022/05/28 02:34:13;;;;;;;5.07;3.53;;;16.30;49.30;;;;;;20903;6736;121244;-83
2022/05/28 02:36:50;;;;;;;5.30;3.47;;;16.10;49.40;;;;;;20922;6736;123136;-83
2022/05/28 02:39:25;;;;;;;5.32;3.60;;;15.90;49.60;;;;;;20705;6736;334150;-86
2022/05/28 02:42:02;;;;;;;5.87;3.85;;;16.20;49.00;;;;;;20566;6736;279386;-83
2022/05/28 02:44:38;;;;;;;6.53;4.20;;;16.50;47.20;;;;;;20684;6736;304041;-83
2022/05/28 02:47:13;;;;;;;6.53;3.70;;;16.80;46.80;;;;;;20712;6736;289933;-83
2022/05/28 02:49:49;;;;;;;5.07;3.33;;;17.00;46.10;;;;;;20923;6736;117404;-85
2022/05/28 02:52:27;;;;;;;7.95;3.78;;;16.80;45.90;;;;;;20511;6736;309073;-83
2022/05/28 02:55:02;;;;;;;5.37;3.27;;;16.80;45.90;;;;;;20845;6764;121845;-83
2022/05/28 02:57:38;;;;;;;4.73;3.30;;;16.60;46.30;;;;;;20928;6736;122528;-83
2022/05/28 03:00:14;;;;;;;5.75;3.78;;;16.30;46.80;;;;;;20701;6736;305962;-85
2022/05/28 03:02:50;;;;;;;5.82;3.90;;;16.30;45.80;;;;;;20440;6749;308152;-84
2022/05/28 03:05:26;;;;;;;6.77;3.80;;;16.60;45.00;;;;;;20711;6735;309701;-85
2022/05/28 03:08:00;;;;;;;5.57;3.27;;;16.80;45.00;;;;;;20920;6736;116979;-83
2022/05/28 03:10:36;;;;;;;8.17;3.40;;;16.50;44.90;;;;;;20903;6736;116773;-83
2022/05/28 03:13:12;;;;;;;6.47;3.03;;;15.80;46.90;;;;;;20872;6749;118149;-84
2022/05/28 03:15:48;;;;;;;6.23;3.50;;;15.80;46.10;;;;;;20719;6736;291068;-83
2022/05/28 03:18:25;;;;;;;7.10;3.57;;;16.00;45.30;;;;;;20906;6736;118589;-83
2022/05/28 03:21:00;;;;;;;6.80;3.33;;;15.90;45.60;;;;;;20874;6736;117339;-84
2022/05/28 03:23:36;;;;;;;9.57;3.60;;;15.70;46.00;;;;;;20880;6749;117097;-83
2022/05/28 03:26:12;;;;;;;5.03;3.17;;;15.50;46.40;;;;;;20902;6736;118162;-84
2022/05/28 03:28:47;;;;;;;6.13;3.43;;;15.30;46.70;;;;;;20708;6736;279437;-84
2022/05/28 03:31:22;;;;;;;4.40;3.30;;;15.60;46.10;;;;;;20830;6736;116091;-83
2022/05/28 03:33:58;;;;;;;6.05;3.40;;;15.60;46.10;;;;;;20716;6736;306100;-83
2022/05/28 03:36:33;;;;;;;6.30;3.20;;;15.80;45.60;;;;;;20909;6736;117653;-83
2022/05/28 03:39:09;;;;;;;5.43;3.10;;;15.70;45.50;;;;;;20713;6736;305536;-83
2022/05/28 03:41:45;;;;;;;5.87;3.03;;;15.80;44.50;;;;;;20598;6736;281466;-83
2022/05/28 03:44:20;;;;;;;4.97;2.80;;;16.00;43.30;;;;;;20900;6736;118168;-83
2022/05/28 03:46:56;;;;;;;4.87;2.50;;;15.90;43.90;;;;;;20912;6736;116409;-85
2022/05/28 03:49:32;;;;;;;4.87;2.93;;;15.20;44.60;;;;;;20924;6736;116156;-83
2022/05/28 03:52:09;;;;;;;4.70;2.27;;;15.20;44.60;;;;;;20747;6736;116904;-85
2022/05/28 03:54:44;;;;;;;8.87;2.97;;;15.00;44.90;;;;;;20929;6736;118388;-83
2022/05/28 03:57:23;;;;;;;7.10;2.90;;;14.90;45.00;;;;;;20717;6736;278795;-83
2022/05/28 03:59:59;;;;;;;6.32;3.15;;;15.20;43.20;;;;;;20713;6736;275960;-83
2022/05/28 04:02:34;;;;;;;6.53;2.83;;;15.60;42.10;;;;;;20506;6736;308468;-83
2022/05/28 04:05:10;;;;;;;4.95;3.00;;;15.90;42.30;;;;;;20723;6736;342671;-83
2022/05/28 04:07:45;;;;;;;4.53;2.70;;;16.10;40.60;;;;;;20912;6736;116840;-82
2022/05/28 04:10:22;;;;;;;6.97;2.83;;;15.90;40.70;;;;;;20691;6736;305904;-82
2022/05/28 04:12:57;;;;;;;8.52;2.92;;;15.90;40.70;;;;;;20510;6798;336641;-83
2022/05/28 04:15:33;;;;;;;7.20;3.13;;;16.10;40.60;;;;;;20706;6736;305185;-83
2022/05/28 04:18:09;;;;;;;6.20;2.83;;;16.30;40.40;;;;;;20635;6754;276972;-83
2022/05/28 04:20:44;;;;;;;3.87;2.20;;;16.40;39.70;;;;;;20844;6754;116887;-83
2022/05/28 04:23:20;;;;;;;5.07;2.78;;;16.10;40.10;;;;;;20652;6754;306763;-82
2022/05/28 04:25:56;;;;;;;6.33;2.13;;;16.00;40.00;;;;;;20850;6754;116553;-83
2022/05/28 04:28:32;;;;;;;5.23;2.63;;;15.80;40.80;;;;;;20842;6754;121157;-83
2022/05/28 04:31:07;;;;;;;5.35;2.78;;;15.50;41.60;;;;;;20595;6754;308606;-84
2022/05/28 04:33:43;;;;;;;8.10;2.70;;;15.60;41.40;;;;;;20869;6754;121975;-83
2022/05/28 04:36:18;;;;;;;4.70;2.20;;;15.60;41.80;;;;;;20844;6754;117121;-82
2022/05/28 04:38:54;;;;;;;5.20;2.43;;;15.30;42.20;;;;;;20859;6754;116199;-84
2022/05/28 04:41:29;;;;;;;4.93;2.40;;;15.10;42.50;;;;;;20763;6754;117607;-83
2022/05/28 04:44:05;;;;;;;5.57;2.60;;;15.00;43.00;;;;;;20647;6754;293131;-82
2022/05/28 04:46:41;;;;;;;5.27;2.47;;;15.30;42.20;;;;;;20641;6754;276647;-84
2022/05/28 04:49:16;;;;;;;5.93;2.60;;;15.70;41.60;;;;;;20642;6754;334984;-82
2022/05/28 04:51:55;;;;;;;5.60;2.60;;;16.10;40.70;;;;;;20815;6754;67935;-84
2022/05/28 04:54:27;;;;;;;6.12;3.00;;;16.00;41.90;;;;;;20692;6754;289052;-84
2022/05/28 04:57:04;;;;;;;6.50;2.50;;;16.00;40.60;;;;;;20954;6754;68465;-84
2022/05/28 04:59:41;;;;;;;7.60;2.30;;;15.90;41.30;;;;;;20931;6754;116811;-83
2022/05/28 05:02:17;;;;;;;5.50;2.43;;;15.70;41.90;;;;;;20757;6754;116922;-84
2022/05/28 05:04:55;;;;;;;4.53;2.40;;;15.50;42.10;;;;;;20913;6754;115269;-84
2022/05/28 05:07:31;;;;;;;4.90;2.70;;;15.30;42.40;;;;;;20919;6754;113934;-85
2022/05/28 05:10:07;;;;;;;4.15;2.60;;;15.20;42.80;;;;;;20683;6754;301653;-86
2022/05/28 05:12:44;;;;;;;5.87;2.73;;;15.50;42.10;;;;;;20743;6754;67506;-85
2022/05/28 05:15:19;;;;;;;4.87;2.60;;;15.50;41.90;;;;;;20935;6754;116353;-84
2022/05/28 05:17:55;;;;;;;8.10;2.90;;;15.40;42.30;;;;;;20656;6754;294151;-83
2022/05/28 05:20:30;;;;;;;7.00;2.63;;;15.60;41.30;;;;;;20843;6754;117030;-84
2022/05/28 05:23:06;;;;;;;5.03;2.60;;;15.70;41.80;;;;;;20875;6754;116978;-83
2022/05/28 05:25:41;;;;;;;6.73;2.27;;;15.60;42.50;;;;;;20879;6754;117046;-83
2022/05/28 05:28:18;;;;;;;7.25;2.80;;;15.80;40.20;;;;;;20638;6753;306397;-89
2022/05/28 05:30:53;;;;;;;9.00;2.70;;;15.80;40.20;;;;;;20836;6754;115984;-85
2022/05/28 05:33:29;;;;;;;4.57;2.30;;;15.90;40.60;;;;;;20871;6754;118166;-84
2022/05/28 05:36:04;;;;;;;5.47;2.70;;;15.80;41.10;;;;;;20878;6754;118365;-83
2022/05/28 05:38:41;;;;;;;8.77;2.67;;;15.60;41.30;;;;;;20873;6754;116876;-88
2022/05/28 05:41:17;;;;;;;6.87;2.63;;;15.50;41.70;;;;;;20800;6810;117155;-81
2022/05/28 05:43:52;;;;;;;5.53;2.78;;;15.50;41.80;;;;;;20673;6756;306960;-82
2022/05/28 05:46:28;;;;;;;5.63;2.30;;;15.80;40.00;;;;;;20886;6745;117797;-83
2022/05/28 05:49:04;;;;;;;7.07;2.60;;;16.00;40.50;;;;;;20785;6760;278647;-83
2022/05/28 05:51:40;;;;;;;6.40;2.87;;;16.00;40.80;;;;;;20681;6786;117164;-84
2022/05/28 05:54:16;;;;;;;4.70;2.80;;;15.90;40.70;;;;;;20596;6770;277055;-83
2022/05/28 05:56:51;;;;;;;7.17;3.03;;;16.30;39.60;;;;;;20690;6745;305977;-83
2022/05/28 05:59:27;;;;;;;5.90;2.72;;;16.80;39.50;;;;;;20609;6760;336645;-84
2022/05/28 06:02:03;;;;;;;6.50;2.67;;;17.10;39.70;;;;;;20735;6762;116708;-84
2022/05/28 06:04:39;;;;;;;7.07;2.97;;;17.20;39.00;;;;;;20674;6745;277211;-84
2022/05/28 06:07:17;;;;;;;5.67;2.57;;;17.40;37.80;;;;;;20853;6764;116376;-84
2022/05/28 06:09:50;;;;;;;5.03;2.83;;;17.30;38.30;;;;;;20793;6775;116416;-83
2022/05/28 06:12:26;;;;;;;5.97;2.43;;;17.10;38.80;;;;;;20627;6779;119101;-83
2022/05/28 06:15:01;;;;;;;5.37;2.40;;;17.00;39.30;;;;;;20829;6771;117206;-83
2022/05/28 06:17:38;;;;;;;5.13;2.70;;;17.00;39.90;;;;;;20897;6745;117419;-83
2022/05/28 06:20:13;;;;;;;5.57;2.63;;;17.00;39.90;;;;;;20576;6772;308482;-84
2022/05/28 06:22:49;;;;;;;4.80;2.57;;;17.50;37.80;;;;;;20697;6756;115930;-84
2022/05/28 06:25:24;;;;;;;5.47;2.80;;;17.80;38.40;;;;;;20847;6760;119165;-84
2022/05/28 06:28:00;;;;;;;6.10;2.40;;;17.90;38.90;;;;;;20879;6756;120046;-84
2022/05/28 06:30:35;;;;;;;3.47;2.37;;;18.00;39.50;;;;;;20764;6786;117302;-84
2022/05/28 06:33:11;;;;;;;6.63;3.40;;;18.20;39.20;;;;;;20593;6779;319296;-84
2022/05/28 06:35:47;;;;;;;5.87;2.70;;;18.90;36.90;;;;;;20841;6767;119146;-85
2022/05/28 06:38:23;;;;;;;4.63;2.43;;;19.30;37.20;;;;;;20833;6767;123046;-85
2022/05/28 06:40:58;;;;;;;5.00;2.73;;;19.50;37.60;;;;;;20801;6766;120135;-86
2022/05/28 06:43:33;;;;;;;5.33;2.60;;;19.90;38.10;;;;;;20666;6751;276745;-84
2022/05/28 06:46:09;;;;;;;4.87;3.00;;;20.70;34.20;;;;;;20638;6752;308681;-87
2022/05/28 06:48:48;;;;;;;6.27;2.50;;;21.70;32.30;;;;;;20869;6752;118415;-84
2022/05/28 06:51:21;;;;;;;4.97;2.67;;;22.00;33.30;;;;;;20599;6752;309718;-89
2022/05/28 06:53:56;;;;;;;4.57;2.55;;;23.00;31.00;;;;;;20666;6752;338957;-88
2022/05/28 06:56:32;;;;;;;4.67;2.63;;;22.90;30.80;;;;;;20870;6752;119805;-84
2022/05/28 06:59:08;;;;;;;3.83;2.33;;;23.10;32.10;;;;;;20885;6752;117044;-84
2022/05/28 07:01:44;;;;;;;4.83;2.80;;;23.30;30.10;;;;;;20565;6752;308489;-84
2022/05/28 07:04:19;;;;;;;4.63;2.43;;;23.20;30.00;;;;;;20827;6752;117239;-86
2022/05/28 07:06:56;;;;;;;10.00;2.70;;;23.30;31.50;;;;;;20882;6752;73537;-86
2022/05/28 07:09:32;;;;;;;5.50;2.77;;;23.00;32.00;;;;;;20648;6752;281610;-84
2022/05/28 07:12:08;;;;;;;4.60;2.70;;;23.10;30.60;;;;;;20457;6752;309296;-86
2022/05/28 07:14:43;;;;;;;4.50;2.37;;;23.40;29.30;;;;;;20869;6752;118329;-86
2022/05/28 07:17:20;;;;;;;4.07;2.23;;;22.90;30.70;;;;;;20860;6752;117765;-86
2022/05/28 07:20:05;;;;;;;2.93;1.90;;;22.90;30.70;;;;;;20857;6752;118863;-83
2022/05/28 07:22:31;;;;;;;6.13;2.53;;;22.60;31.20;;;;;;20650;6752;117697;-87
2022/05/28 07:25:07;;;;;;;3.57;1.77;;;22.40;31.10;;;;;;20866;6752;66335;-83
2022/05/28 07:27:42;;;;;;;4.47;2.50;;;22.30;31.30;;;;;;20642;6752;279349;-84
2022/05/28 07:30:18;;;;;;;1.90;1.50;;;22.40;29.30;;;;;;20819;6808;120747;-91
2022/05/28 07:32:53;;;;;;;5.17;2.57;;;22.30;29.50;;;;;;20736;6742;118647;-89
2022/05/28 07:35:39;;;;;;;;;;;;;;;;;;;;;
2022/05/28 07:38:08;;;;;;;3.00;2.13;;;21.90;30.20;;;;;;20638;6760;277603;-83
2022/05/28 07:40:44;;;;;;;4.37;2.40;;;22.20;30.00;;;;;;20591;6771;307633;-85
2022/05/28 07:43:19;;;;;;;3.37;2.20;;;22.50;30.10;;;;;;20525;6801;297527;-83
2022/05/28 07:45:52;;;;;;;3.87;1.95;;;22.70;29.90;;;;;;20572;6794;308149;-82
2022/05/28 07:48:27;;;;;;;3.63;1.83;;;23.00;30.30;;;;;;20749;6779;117269;-85
2022/05/28 07:51:03;;;;;;;1.87;1.50;;;22.90;30.60;;;;;;20741;6779;117781;-86
2022/05/28 07:53:39;;;;;;;3.57;1.70;;;22.50;31.30;;;;;;20844;6763;117643;-87
2022/05/28 07:56:15;;;;;;;3.83;1.90;;;22.50;31.20;;;;;;20741;6786;122138;-82
2022/05/28 07:58:51;;;;;;;4.00;2.50;;;22.40;31.40;;;;;;20566;6781;307035;-82
2022/05/28 08:01:29;;;;;;;3.00;2.07;;;22.60;29.40;;;;;;20707;6781;117227;-84
2022/05/28 08:04:05;;;;;;;3.83;2.10;;;22.60;29.70;;;;;;20562;6796;307623;-84
2022/05/28 08:06:40;;;;;;;4.10;2.28;;;22.70;29.00;;;;;;20684;6745;337492;-82
2022/05/28 08:09:16;;;;;;;2.77;2.00;;;22.70;28.70;;;;;;20862;6756;118943;-85
2022/05/28 08:11:51;;;;;;;5.23;1.80;;;22.40;29.60;;;;;;20853;6730;121058;-84
2022/05/28 08:14:27;;;;;;;3.57;1.73;;;22.20;30.10;;;;;;20925;6730;117447;-83
2022/05/28 08:17:03;;;;;;;3.90;1.80;;;22.00;30.50;;;;;;20903;6745;116361;-86
2022/05/28 08:19:39;;;;;;;3.00;1.67;;;22.20;30.00;;;;;;20619;6760;276932;-83
2022/05/28 08:25:10;;;;;;;2.43;1.33;;;22.40;30.10;;;;;;20568;6779;309360;-83
2022/05/28 08:27:45;;;;;;;5.70;1.60;;;22.90;27.40;;;;;;20843;6775;117120;-83
2022/05/28 08:30:21;;;;;;;2.67;1.37;;;23.00;28.20;;;;;;20857;6757;122933;-85
2022/05/28 08:32:58;;;;;;;2.50;1.80;;;22.80;28.50;;;;;;20672;6826;117118;-83
2022/05/28 08:35:34;;;;;;;2.08;1.30;;;22.80;28.60;;;;;;20662;6755;335041;-84
2022/05/28 08:38:09;;;;;;;3.20;1.87;;;22.90;26.90;;;;;;20645;6755;276918;-86
2022/05/28 08:40:48;;;;;;;4.43;1.75;;;23.20;27.30;;;;;;20638;6755;304883;-83
2022/05/28 08:43:23;;;;;;;2.57;1.60;;;23.40;27.90;;;;;;20663;6755;277823;-83
2022/05/28 08:45:59;;;;;;;2.95;1.90;;;23.60;28.10;;;;;;20650;6755;308916;-83
2022/05/28 08:48:48;;;;;;;2.53;1.30;;;23.90;27.60;;;;;;20855;6755;117386;-84
2022/05/28 08:51:54;;;;;;;2.60;1.63;;;23.80;28.30;;;;;;20581;6755;280515;-83
2022/05/28 08:54:26;;;;;;;2.80;1.87;;;23.90;28.10;;;;;;20640;6755;277623;-83
2022/05/28 08:57:03;;;;;;;2.60;1.70;;;24.40;26.90;;;;;;20641;6755;336723;-82
2022/05/28 08:59:42;;;;;;;1.57;1.30;;;24.30;26.60;;;;;;20872;6755;116258;-83
2022/05/28 09:02:17;;;;;;;1.73;1.27;;;24.30;27.00;;;;;;20691;6755;119507;-84
2022/05/28 09:04:53;;;;;;;2.60;1.60;;;24.00;27.20;;;;;;20613;6769;279288;-83
2022/05/28 09:07:29;;;;;;;1.20;1.10;;;24.10;26.80;;;;;;20870;6755;117069;-84
2022/05/28 09:10:05;;;;;;;2.63;1.40;;;24.20;25.40;;;;;;20675;6755;309095;-83
2022/05/28 09:12:44;;;;;;;1.47;1.37;;;24.20;25.30;;;;;;20732;6755;118117;-84
2022/05/28 09:15:19;;;;;;;2.13;1.33;;;24.30;25.80;;;;;;20859;6811;116518;-85
2022/05/28 09:17:56;;;;;;;2.60;1.57;;;23.70;25.80;;;;;;20658;6755;311097;-83
2022/05/28 09:20:37;;;;;;;2.20;1.33;;;23.60;25.70;;;;;;20624;6755;309086;-83
2022/05/28 09:23:13;;;;;;;2.63;1.50;;;23.80;25.50;;;;;;20871;6755;116995;-82
2022/05/28 09:25:48;;;;;;;2.90;1.30;;;23.90;26.40;;;;;;20869;6755;122920;-82
2022/05/28 09:28:45;;;;;;;1.80;1.50;;;23.80;26.70;;;;;;20856;6755;117549;-82
2022/05/28 09:31:33;;;;;;;1.30;1.20;;;23.70;26.60;;;;;;20809;6755;116996;-84
2022/05/28 09:34:25;;;;;;;2.97;1.63;;;23.80;27.20;;;;;;20655;6755;306318;-83
2022/05/28 09:37:07;;;;;;;2.40;1.40;;;24.30;27.50;;;;;;20869;6755;122697;-83
2022/05/28 09:40:00;;;;;;;3.53;1.53;;;24.40;27.00;;;;;;20874;6755;119079;-84
2022/05/28 09:42:41;;;;;;;2.53;1.07;;;24.00;27.00;;;;;;20702;6755;116482;-82
2022/05/28 09:45:34;;;;;;;2.17;1.40;;;23.60;27.10;;;;;;20729;6811;117631;-85
2022/05/28 09:48:16;;;;;;;2.33;1.40;;;23.30;25.80;;;;;;20640;6755;277673;-83
2022/05/28 09:50:54;;;;;;;3.80;1.30;;;23.30;25.90;;;;;;20633;6755;341083;-82
2022/05/28 09:56:38;;;;;;;1.83;1.30;;;23.70;26.00;;;;;;20655;6755;300219;-89
2022/05/28 09:59:23;;;;;;;4.00;1.30;;;23.80;26.60;;;;;;20676;6755;277777;-84
2022/05/28 10:02:12;;;;;;;1.47;1.00;;;24.50;24.60;;;;;;20401;6811;309811;-84
2022/05/28 10:04:54;;;;;;;1.83;1.20;;;24.50;24.60;;;;;;20825;6771;117477;-85
2022/05/28 10:07:35;;;;;;;2.30;0.90;;;24.40;25.40;;;;;;20860;6760;117063;-84
2022/05/28 10:10:26;;;;;;;2.20;1.20;;;24.30;26.00;;;;;;20848;6760;118199;-85
2022/05/28 10:13:08;;;;;;;2.85;1.30;;;24.20;26.50;;;;;;20461;6825;282033;-85
2022/05/28 10:15:45;;;;;;;1.77;1.17;;;24.50;26.10;;;;;;20867;6759;117561;-85
2022/05/28 10:18:23;;;;;;;2.73;1.50;;;24.50;25.70;;;;;;20441;6845;310339;-86
2022/05/28 10:21:08;;;;;;;1.23;1.13;;;24.60;25.60;;;;;;20525;6781;303327;-86
2022/05/28 10:23:50;;;;;;;3.90;1.57;;;24.90;25.20;;;;;;20790;6771;120025;-86
2022/05/28 10:26:36;;;;;;;2.83;1.50;;;24.50;24.80;;;;;;20538;6786;401665;-86
2022/05/28 10:29:31;;;;;;;3.30;1.50;;;24.30;24.70;;;;;;20822;6770;116503;-87
2022/05/28 10:32:14;;;;;;;2.43;1.40;;;23.90;25.50;;;;;;20511;6768;280549;-88
2022/05/28 10:34:59;;;;;;;2.73;1.40;;;23.90;25.90;;;;;;20612;6771;278179;-89
2022/05/28 10:37:34;;;;;;;3.87;1.50;;;24.10;25.90;;;;;;20751;6838;117306;-90
2022/05/28 10:40:24;;;;;;;2.77;1.30;;;23.80;25.60;;;;;;20522;6843;277920;-92
2022/05/28 10:43:03;;;;;;;2.43;1.43;;;23.80;25.60;;;;;;20390;6834;280902;-88
2022/05/28 10:45:42;;;;;;;3.27;1.53;;;24.10;25.80;;;;;;20629;6763;308141;-91
2022/05/28 10:48:48;;;;;;;3.73;1.13;;;24.00;25.80;;;;;;20819;6763;117615;-88
2022/05/28 10:51:30;;;;;;;3.17;1.27;;;24.00;26.70;;;;;;20770;6763;117185;-87
2022/05/28 10:54:12;;;;;;;2.47;1.03;;;23.80;27.20;;;;;;20862;6753;117068;-89
2022/05/28 10:56:53;;;;;;;2.70;1.40;;;23.70;27.30;;;;;;20658;6753;309584;-87
2022/05/28 10:59:47;;;;;;;3.13;1.43;;;23.90;26.10;;;;;;20844;6753;118255;-87
2022/05/28 11:02:42;;;;;;;2.53;1.50;;;23.90;26.10;;;;;;20435;6779;319545;-87
2022/05/28 11:05:40;;;;;;;9.77;7.10;;;24.00;26.60;;;;;;20832;6764;119026;-90
2022/05/28 11:08:36;;;;;;;40.73;36.90;;;23.90;26.80;;;;;;20815;6764;117075;-86
2022/05/28 11:11:15;;;;;;;2.03;1.30;;;23.60;27.00;;;;;;20793;6764;117395;-90
2022/05/28 11:13:54;;;;;;;1.73;1.10;;;23.50;27.00;;;;;;20841;6760;117571;-89
2022/05/28 11:16:36;;;;;;;2.53;1.27;;;23.40;27.30;;;;;;20395;6805;320332;-89
2022/05/28 11:19:25;;;;;;;2.70;1.10;;;23.60;26.80;;;;;;20757;6775;114285;-87
2022/05/28 11:22:26;;;;;;;;;;;;;;;;;;;;;
2022/05/28 11:25:15;;;;;;;;;;;;;;;;;;;;;
2022/05/28 11:28:14;;;;;;;3.40;1.50;;;23.90;25.60;;;;;;20740;6801;117283;-88
2022/05/28 11:30:52;;;;;;;2.23;1.20;;;23.70;26.10;;;;;;20668;6850;118285;-88
2022/05/28 11:33:25;;;;;;;2.40;1.40;;;23.40;26.90;;;;;;20586;6779;309648;-87
2022/05/28 11:36:03;;;;;;;1.83;1.20;;;23.50;27.00;;;;;;20641;6771;336812;-88
2022/05/28 11:38:42;;;;;;;2.47;1.20;;;23.80;26.90;;;;;;20802;6771;117689;-88
2022/05/28 11:41:31;;;;;;;2.60;1.43;;;23.80;26.60;;;;;;20633;6745;313119;-86
2022/05/28 11:44:36;;;;;;;2.63;1.20;;;23.80;25.40;;;;;;20876;6756;119490;-90
2022/05/28 11:47:25;;;;;;;1.57;1.17;;;23.70;26.10;;;;;;20876;6745;117190;-90
2022/05/28 11:53:35;;;;;;;2.00;1.47;;;23.20;26.90;;;;;;20853;6756;117223;-89
2022/05/28 11:56:18;;;;;;;3.23;1.30;;;22.90;27.30;;;;;;20795;6771;117179;-89
2022/05/28 11:58:56;;;;;;;2.27;1.40;;;22.80;27.60;;;;;;20796;6771;116327;-89
2022/05/28 12:01:55;;;;;;;2.40;1.33;;;22.70;27.80;;;;;;20786;6749;117939;-88
2022/05/28 12:04:41;;;;;;;;;;;;;;;;;;;;;
2022/05/28 12:07:13;;;;;;;2.87;1.30;;;22.50;28.10;;;;;;20632;6775;117262;-92
2022/05/28 12:09:49;;;;;;;1.87;1.40;;;22.40;28.30;;;;;;20862;6775;119761;-90
2022/05/28 12:12:38;;;;;;;2.70;1.50;;;22.30;28.50;;;;;;20701;6760;117745;-90
2022/05/28 12:15:13;;;;;;;3.67;1.30;;;22.20;28.40;;;;;;20775;6839;117237;-90
2022/05/28 12:18:02;;;;;;;1.37;1.23;;;22.10;28.40;;;;;;20769;6771;117182;-90
2022/05/28 12:20:48;;;;;;;5.93;1.63;;;22.10;28.50;;;;;;20794;6757;117400;-89
2022/05/28 12:23:40;;;;;;;2.40;1.40;;;22.00;28.60;;;;;;20806;6760;118642;-91
2022/05/28 12:26:41;;;;;;;1.20;1.10;;;22.00;28.20;;;;;;20795;6782;117119;-89
2022/05/28 12:28:57;;;;;;;4.13;1.53;;;21.90;28.10;;;;;;20856;6801;117120;-88
2022/05/28 12:31:30;;;;;;;3.33;1.30;;;21.90;28.00;;;;;;20533;6775;280116;-88
2022/05/28 12:34:08;;;;;;;1.87;1.33;;;22.20;26.40;;;;;;20788;6786;67437;-90
2022/05/28 12:36:43;;;;;;;2.40;1.57;;;22.30;27.00;;;;;;20679;6745;299202;-88
2022/05/28 12:39:37;;;;;;;3.40;1.70;;;22.60;27.20;;;;;;20616;6771;278270;-90
2022/05/28 12:42:17;;;;;;;1.53;1.23;;;22.90;26.50;;;;;;20653;6789;118020;-86
2022/05/28 12:44:53;;;;;;;2.63;1.57;;;22.90;26.50;;;;;;20635;6760;310232;-88
2022/05/28 12:47:31;;;;;;;1.97;1.20;;;23.00;26.80;;;;;;20777;6775;117232;-87
2022/05/28 12:50:10;;;;;;;3.57;1.23;;;23.00;27.30;;;;;;20855;6760;117560;-86
2022/05/28 12:53:01;;;;;;;1.90;1.10;;;22.90;27.40;;;;;;20691;6754;117916;-86
2022/05/28 12:55:37;;;;;;;3.80;1.43;;;22.90;27.60;;;;;;20747;6831;118037;-87
2022/05/28 12:58:23;;;;;;;2.23;1.40;;;23.10;26.80;;;;;;20535;6783;307777;-87
2022/05/28 13:00:59;;;;;;;2.60;1.30;;;23.10;26.70;;;;;;20791;6768;117619;-86
2022/05/28 13:03:36;;;;;;;1.53;1.03;;;23.20;26.70;;;;;;20862;6771;117163;-86
2022/05/28 13:06:30;;;;;;;2.80;1.40;;;22.90;26.80;;;;;;20779;6771;117523;-87
2022/05/28 13:09:07;;;;;;;2.62;1.30;;;22.90;26.80;;;;;;20584;6771;308787;-86
2022/05/28 13:11:42;;;;;;;1.73;1.27;;;23.10;24.70;;;;;;20528;6756;282331;-87
2022/05/28 13:14:36;;;;;;;2.40;1.10;;;23.30;25.10;;;;;;20581;6771;291746;-87
2022/05/28 13:17:32;;;;;;;2.55;1.17;;;23.40;25.00;;;;;;20622;6816;336230;-86
2022/05/28 13:20:26;;;;;;;2.57;1.00;;;23.10;25.90;;;;;;20748;6766;121324;-86
2022/05/28 13:23:14;;;;;;;5.55;1.40;;;23.10;25.90;;;;;;20375;6843;339127;-85
2022/05/28 13:26:03;;;;;;;4.55;1.52;;;23.10;25.60;;;;;;20570;6773;306274;-85
2022/05/28 13:28:51;;;;;;;23.63;2.10;;;23.30;25.50;;;;;;20643;6835;117411;-86
2022/05/28 13:31:27;;;;;;;1.27;1.10;;;23.00;26.10;;;;;;20721;6771;117854;-86
2022/05/28 13:34:04;;;;;;;2.83;1.53;;;22.90;26.00;;;;;;20638;6768;305657;-87
2022/05/28 13:36:41;;;;;;;1.23;1.10;;;23.20;26.50;;;;;;20856;6753;118688;-86
2022/05/28 13:39:17;;;;;;;2.17;1.40;;;23.10;26.10;;;;;;20825;6768;117597;-86
2022/05/28 13:41:52;;;;;;;2.30;1.30;;;22.90;26.10;;;;;;20472;6773;312767;-86
2022/05/28 13:44:28;;;;;;;3.20;1.50;;;23.00;25.90;;;;;;20572;6773;336266;-87
2022/05/28 13:47:04;;;;;;;1.63;1.17;;;23.30;26.30;;;;;;20799;6770;117084;-88
2022/05/28 13:49:39;;;;;;;2.12;1.40;;;23.10;26.20;;;;;;20606;6767;308424;-86